• Join FlightAware (Why Join?)
  • Login
  • US Flag 
01:16AM EDT


 

Airport Tracker/Info


-or-


 

Live Flight TrackerFlight Track Log ✈ UAL4476 ✈ 21-Oct-2013 ✈ KIAH - KSAT

Flight Track Log - Related Links

Times and Time Zones

All times are in EDT time to prevent confusion due to time zone crossing. See the UAL4476 flight status page for this flight to view local times or setup timezone preferences in your user account.

Time Position Orientation Groundspeed Altitude Reporting Facility
EDT Latitude Longitude Course Direction KTS MPH feet Rate Location/Type
01:15PM 29.9594 -95.3414 270° West 152 175 700  Level Houston Center
01:17PM 29.9111 -95.4100 231° Southwest 268 308 3,300 1,500 Climbing Houston Center
01:17PM 29.9122 -95.4097 12° North 244 281 3,300 2,400 Level Houston Center
01:18PM 29.8989 -95.4836 258° West 252 290 5,500 2,220 Climbing Houston Center
01:18PM 29.8992 -95.4886 274° West 252 290 5,600 2,340 Climbing Houston Center
01:19PM 29.9261 -95.7787 270° West  Level Estimated
01:19PM 29.8833 -95.5675 257° West 270 311 7,900  Level Houston Center
01:19PM 29.8822 -95.5900 267° West 268 308 8,400 1,740 Climbing Houston Center
01:20PM 29.9113 -95.8880 270° West  Level Estimated
01:20PM 29.8675 -95.6764 259° West 275 316 10,200  Level Houston Center
01:21PM 29.8980 -95.9858 270° West  Level Estimated
01:21PM 29.8506 -95.7639 257° West 323 372 11,300  Level Houston Center
01:21PM 29.8494 -95.7747 263° West 311 358 11,500 1,440 Climbing Houston Center
01:22PM 29.8319 -95.8747 259° West 320 368 13,100 1,500 Climbing Houston Center
01:23PM 29.8186 -95.9783 262° West 328 377 14,700 1,500 Climbing Houston Center
01:24PM 29.7978 -96.0800 257° West 321 369 16,200 1,440 Climbing Houston Center
01:25PM 29.7786 -96.2011 260° West 325 374 17,700 1,380 Climbing Houston Center
01:26PM 29.7883 -96.3056 276° West 329 379 19,100 1,140 Climbing Houston Center
01:27PM 29.7961 -96.4111 275° West 331 381 20,100 960 Climbing Houston Center
01:28PM 29.8042 -96.5197 275° West 341 392 21,100 960 Climbing Houston Center
01:29PM 29.8119 -96.6297 275° West 347 399 22,100 960 Climbing Houston Center
01:30PM 29.8206 -96.7383 275° West 344 396 23,100 1,020 Climbing Houston Center
01:31PM 29.8294 -96.8714 274° West 348 400 24,300 960 Climbing Houston Center
01:32PM 29.8386 -96.9842 275° West 354 407 25,200 720 Climbing Houston Center
01:33PM 29.8458 -97.0961 274° West 354 407 25,900 -720 Climbing Houston Center
01:34PM 29.8550 -97.2200 275° West 387 445 23,800 -2,400 Descending Houston Center
01:35PM 29.8636 -97.3489 274° West 405 466 21,100 -2,640 Descending Houston Center
01:36PM 29.8731 -97.4942 274° West 385 443 18,400 -2,520 Descending Houston Center
01:37PM 29.8819 -97.6228 275° West 379 436 16,000 -2,340 Descending Houston Center
01:38PM 29.8842 -97.6681 273° West 378 435 15,100 -2,040 Descending Houston Center
01:38PM 29.8858 -97.6847 277° West 375 432 14,800 -2,100 Descending Houston Center
01:38PM 29.8889 -97.7386 274° West 367 422 13,800 -1,620 Descending Houston Center
01:39PM 29.8931 -97.8022 274° West 364 419 13,200 -720 Descending Houston Center
01:40PM 29.8956 -97.8558 273° West 368 423 13,100 -240 Descending Houston Center
01:40PM 29.8711 -97.9231 247° West 371 427 13,000 -540 Descending Houston Center
01:41PM 29.8508 -97.9725 245° Southwest 368 423 12,600 -1,020 Descending Houston Center
01:41PM 29.8264 -98.0275 243° Southwest 359 413 12,000 -1,380 Descending Houston Center
01:42PM 29.8081 -98.0728 245° Southwest 352 405 11,200 -1,500 Descending Houston Center
01:42PM 29.7869 -98.1214 243° Southwest 323 372 10,500 -1,320 Descending Houston Center
01:43PM 29.7686 -98.1672 245° Southwest 307 353 9,900 -1,320 Descending Houston Center
01:43PM 29.7547 -98.2025 246° West 268 308 9,200 -1,680 Descending Houston Center
01:44PM 29.7356 -98.2444 242° Southwest 276 318 8,200 -1,680 Descending Houston Center
01:44PM 29.7264 -98.2831 255° West 271 312 7,500 -1,380 Descending Houston Center
01:45PM 29.7236 -98.3283 266° West 266 306 6,800 -1,320 Descending Houston Center
01:45PM 29.7231 -98.3603 269° West 259 298 6,300 -720 Descending Houston Center
01:46PM 29.7211 -98.4156 268° West 256 295 6,100 -300 Descending Houston Center
01:46PM 29.7214 -98.4544 270° West 255 293 6,000 -420 Descending Houston Center
01:47PM 29.7194 -98.4942 267° West 248 285 5,700 -1,140 Descending Houston Center
01:47PM 29.7197 -98.5292 271° West 230 265 4,900 -1,680 Descending Houston Center
01:48PM 29.7017 -98.5633 239° Southwest 227 261 4,000 -1,440 Descending Houston Center
01:48PM 29.6822 -98.5794 216° Southwest 213 245 3,500 -900 Descending Houston Center
01:49PM 29.6553 -98.6036 218° Southwest 211 243 3,100 -540 Descending Houston Center
01:49PM 29.6322 -98.6044 182° South 201 231 3,000 -300 Descending Houston Center
01:50PM 29.6092 -98.5714 129° Southeast 201 231 2,800 -600 Descending Houston Center
01:50PM 29.5961 -98.5561 135° Southeast 198 228 2,400 -780 Descending Houston Center
01:51PM 29.5792 -98.5322 129° Southeast 166 191 2,000 -840 Descending Houston Center
01:51PM 29.5700 -98.5206 132° Southeast 132 152 1,600 -780 Descending Houston Center
01:52PM 29.5528 -98.4975 131° Southeast 138 159 1,200 -360 Descending Houston Center
01:53PM 29.5331 -98.4703 130° Southeast 137 158 1,000 -240 Descending Houston Center